• Join FlightAware (Why Join?)
  • Login
  • US Flag 
09:21PM EDT


 

Airport Tracker/Info


-or-


 

Live Flight TrackerFlight Track Log ✈ SWA3937 ✈ 15-Apr-2013 ✈ KPHX - KLIT

Flight Track Log - Related Links

Times and Time Zones

All times are in EDT time to prevent confusion due to time zone crossing. See the SWA3937 flight status page for this flight to view local times or setup timezone preferences in your user account.

Time Position Orientation Groundspeed Altitude Reporting Facility
EDT Latitude Longitude Course Direction KTS MPH feet Rate Location/Type
02:31PM 33.4167 -112.1000 253° West 217 250 4,200  Level Phoenix TRACON
02:32PM 33.4031 -112.1444 250° West 217 250 5,800 2,640 Climbing Albuquerque Center
02:33PM 33.3519 -112.1853 214° Southwest 260 299 8,500 2,340 Climbing Albuquerque Center
02:34PM 33.3169 -112.1017 117° Southeast 323 372 10,700 2,160 Climbing Albuquerque Center
02:35PM 33.3492 -111.9833 72° East 377 434 13,000 2,580 Climbing Albuquerque Center
02:36PM 33.3811 -111.8556 73° East 401 461 16,100 3,000 Climbing Albuquerque Center
02:37PM 33.4150 -111.7244 73° East 415 478 19,200 3,000 Climbing Albuquerque Center
02:38PM 33.4569 -111.5594 73° East 433 498 22,300 2,580 Climbing Albuquerque Center
02:39PM 33.4919 -111.4183 73° East 444 511 24,600 1,920 Climbing Albuquerque Center
02:40PM 33.5142 -111.2681 80° East 464 534 26,300 1,680 Climbing Albuquerque Center
02:41PM 33.5319 -111.1114 82° East 477 549 28,100 1,680 Climbing Albuquerque Center
02:42PM 33.5497 -110.9500 82° East 491 565 29,800 1,380 Climbing Albuquerque Center
02:43PM 33.5892 -110.7914 73° East 497 572 31,000 540 Climbing Albuquerque Center
02:44PM 33.6492 -110.6056 69° East 500 575 31,000  Level Albuquerque Center
02:45PM 33.6983 -110.4528 69° East 497 572 31,000 240 Level Albuquerque Center
02:46PM 33.7439 -110.3081 69° East 496 571 31,500 1,080 Climbing Albuquerque Center
02:47PM 33.7947 -110.1542 68° East 498 573 33,300 1,680 Climbing Albuquerque Center
02:48PM 33.8531 -109.9700 69° East 497 572 35,000 1,320 Climbing Albuquerque Center
02:49PM 33.9022 -109.8158 69° East 496 571 36,100 960 Climbing Albuquerque Center
02:50PM 33.9344 -109.6547 76° East 502 578 37,000 420 Climbing Albuquerque Center
02:51PM 33.9633 -109.4914 78° East 499 574 37,000 180 Level Albuquerque Center
02:52PM 33.9889 -109.3278 79° East 500 575 37,400 600 Climbing Albuquerque Center
02:53PM 34.0208 -109.1300 79° East 502 578 38,300 600 Climbing Albuquerque Center
02:54PM 34.0486 -108.9625 79° East 507 583 38,700 300 Climbing Albuquerque Center
02:55PM 34.0775 -108.7900 79° East 517 595 39,000 120 Climbing Albuquerque Center
02:56PM 34.1047 -108.6189 79° East 521 600 39,000  Level Albuquerque Center
02:57PM 34.1311 -108.4531 79° East 512 589 39,000 -540 Level Albuquerque Center
02:58PM 34.1572 -108.2881 79° East 507 583 37,900 -1,020 Descending Albuquerque Center
02:59PM 34.1869 -108.0861 80° East 509 586 37,000 -480 Descending Albuquerque Center
03:00PM 34.2133 -107.9161 79° East 513 590 37,000  Level Albuquerque Center
03:01PM 34.2400 -107.7481 79° East 511 588 37,000  Level Albuquerque Center
03:03PM 34.2647 -107.5789 80° East 512 589 37,000  Level Albuquerque Center
03:04PM 34.2897 -107.4131 80° East 507 583 37,000  Level Albuquerque Center
03:05PM 34.3189 -107.2333 79° East 495 570 37,000  Level Albuquerque Center
03:06PM 34.3436 -107.0681 80° East 499 574 37,000  Level Albuquerque Center
03:07PM 34.3686 -106.9008 80° East 506 582 37,000  Level Albuquerque Center
03:08PM 34.3917 -106.7314 81° East 511 588 37,000  Level Albuquerque Center
03:09PM 34.4158 -106.5667 80° East 505 581 37,000  Level Albuquerque Center
03:10PM 34.4433 -106.3686 80° East 502 578 37,000  Level Albuquerque Center
03:11PM 34.4675 -106.1978 80° East 504 580 37,000  Level Albuquerque Center
03:12PM 34.4900 -106.0303 81° East 500 575 37,000  Level Albuquerque Center
03:13PM 34.5142 -105.8606 80° East 505 581 37,000  Level Albuquerque Center
03:14PM 34.5367 -105.6925 81° East 504 580 37,000  Level Albuquerque Center
03:15PM 34.5592 -105.5242 81° East 502 578 37,000  Level Albuquerque Center
03:16PM 34.5861 -105.3267 81° East 505 581 37,000  Level Albuquerque Center
03:17PM 34.6081 -105.1564 81° East 507 583 37,000  Level Albuquerque Center
03:18PM 34.6306 -104.9869 81° East 507 583 37,000  Level Albuquerque Center
03:19PM 34.6533 -104.8156 81° East 509 586 37,000  Level Albuquerque Center
03:20PM 34.6750 -104.6456 81° East 508 585 37,000  Level Albuquerque Center
03:21PM 34.6975 -104.4803 81° East 499 574 37,000  Level Albuquerque Center
03:22PM 34.7197 -104.2872 82° East 495 570 37,000  Level Albuquerque Center
03:23PM 34.7414 -104.1203 81° East 497 572 37,000  Level Albuquerque Center
03:24PM 34.7619 -103.9519 81° East 502 578 37,000  Level Albuquerque Center
03:25PM 34.7814 -103.7825 82° East 505 581 37,000  Level Albuquerque Center
03:26PM 34.8025 -103.6125 81° East 506 582 37,000  Level Albuquerque Center
03:27PM 34.8228 -103.4422 82° East 507 583 37,000  Level Albuquerque Center
03:28PM 34.8456 -103.2453 82° East 503 579 37,000  Level Albuquerque Center
03:29PM 34.8653 -103.0758 82° East 503 579 37,000  Level Albuquerque Center
03:30PM 34.8831 -102.9067 83° East 502 578 37,000  Level Albuquerque Center
03:31PM 34.9028 -102.7389 82° East 499 574 37,000  Level Albuquerque Center
03:32PM 34.9219 -102.5631 82° East 497 572 37,000  Level Albuquerque Center
03:34PM 34.9397 -102.3967 83° East 497 572 37,000  Level Albuquerque Center
03:35PM 34.9564 -102.2314 83° East 495 570 37,000  Level Albuquerque Center
03:36PM 34.9742 -102.0669 82° East 494 568 37,000  Level Albuquerque Center
03:37PM 34.9956 -101.8733 82° East 494 568 37,000  Level Albuquerque Center
03:38PM 35.0136 -101.7047 83° East 496 571 37,000  Level Albuquerque Center
03:39PM 35.0297 -101.5253 84° East 502 578 37,000  Level Albuquerque Center
03:40PM 35.0625 -101.3608 76° East 498 573 37,000  Level Albuquerque Center
03:41PM 35.0964 -101.2153 74° East 500 575 37,000  Level Albuquerque Center
03:42PM 35.1411 -101.0236 74° East 494 568 37,000  Level Albuquerque Center
03:43PM 35.1789 -100.8625 74° East 495 570 37,000  Level Albuquerque Center
03:44PM 35.2172 -100.7014 74° East 496 571 37,000  Level Albuquerque Center
03:45PM 35.2517 -100.5481 75° East 496 571 37,000  Level Albuquerque Center
03:46PM 35.2639 -100.3469 86° East 500 575 37,000  Level Albuquerque Center
03:47PM 35.2578 -100.1786 92° East 497 572 37,000  Level Albuquerque Center
03:48PM 35.2514 -100.0117 93° East 494 568 37,000  Level Albuquerque Center
03:49PM 35.2450 -99.8444 93° East 493 567 37,000  Level Albuquerque Center
03:50PM 35.2367 -99.6767 93° East 494 568 37,000  Level Albuquerque Center
03:51PM 35.2294 -99.5117 93° East 490 564 37,000  Level Albuquerque Center
03:52PM 35.2194 -99.3111 93° East 493 567 37,000  Level Albuquerque Center
03:53PM 35.2156 -99.2356 94° East 487 560 37,000  Level Fort Worth Center
03:54PM 35.2056 -99.0675 94° East 487 560 37,000  Level Fort Worth Center
03:55PM 35.1992 -98.8997 93° East 493 567 37,000  Level Fort Worth Center
03:56PM 35.1908 -98.7294 93° East 498 573 37,000  Level Fort Worth Center
03:57PM 35.1819 -98.5617 94° East 498 573 37,000  Level Fort Worth Center
03:58PM 35.1769 -98.4142 92° East 498 573 37,000  Level Fort Worth Center
03:59PM 35.1636 -98.2439 95° East 498 573 37,000  Level Fort Worth Center
04:00PM 35.1542 -98.0764 94° East 498 573 37,000  Level Fort Worth Center
04:01PM 35.1444 -97.9086 94° East 498 573 37,000  Level Fort Worth Center
04:02PM 35.1325 -97.7411 95° East 498 573 37,000  Level Fort Worth Center
04:03PM 35.1225 -97.5708 94° East 498 573 37,000  Level Fort Worth Center
04:04PM 35.1122 -97.4033 94° East 498 573 37,000  Level Fort Worth Center
04:05PM 35.0994 -97.2156 95° East 498 573 37,000  Level Fort Worth Center
04:06PM 35.0908 -97.0481 94° East 498 573 37,000  Level Fort Worth Center
04:07PM 35.0797 -96.8808 95° East 498 573 37,000  Level Fort Worth Center
04:08PM 35.0686 -96.7133 95° East 498 573 37,000 -300 Level Fort Worth Center
04:09PM 35.0569 -96.5461 95° East 498 573 36,400 -840 Descending Fort Worth Center
04:10PM 35.0453 -96.3814 95° East 498 573 35,400 -720 Descending Fort Worth Center
04:11PM 35.0336 -96.2167 95° East 488 562 35,000 -240 Descending Fort Worth Center
04:12PM 35.0236 -96.0572 94° East 483 556 35,000  Level Fort Worth Center
04:13PM 35.0092 -95.8953 96° East 478 550 35,000  Level Fort Worth Center
04:15PM 34.9886 -95.5556 94° East 461 531 35,000  Level Memphis Center
04:16PM 34.9744 -95.3925 96° East 474 545 35,000  Level Memphis Center
04:17PM 34.9600 -95.2319 96° East 479 551 35,000  Level Memphis Center
04:18PM 34.9478 -95.0667 95° East 484 557 35,000  Level Memphis Center
04:19PM 34.9347 -94.9064 96° East 484 557 35,000  Level Memphis Center
04:20PM 34.9219 -94.7461 96° East 484 557 35,000  Level Memphis Center
04:21PM 34.9067 -94.5808 96° East 484 557 35,000 -300 Level Memphis Center
04:22PM 34.8911 -94.4206 97° East 484 557 34,400 -1,740 Descending Memphis Center
04:23PM 34.8761 -94.2425 96° East 484 557 31,600 300 Descending Memphis Center
04:24PM 34.8642 -94.0853 95° East 477 549 35,000 -2,400 Climbing Memphis Center
04:25PM 34.8497 -93.9328 97° East 466 536 26,800 -5,340 Descending Memphis Center
04:26PM 34.8353 -93.7803 97° East 461 531 24,400 -2,460 Descending Memphis Center
04:27PM 34.8206 -93.6278 97° East 461 531 21,900 -2,460 Descending Memphis Center
04:28PM 34.8078 -93.4781 96° East 456 525 19,500 -2,520 Descending Memphis Center
04:29PM 34.7947 -93.3336 96° East 443 510 16,900 -2,580 Descending Memphis Center
04:30PM 34.7792 -93.1939 98° East 429 494 14,400 -2,520 Descending Memphis Center
04:31PM 34.7656 -93.0569 97° East 417 480 11,900 -2,460 Descending Memphis Center
04:31PM 34.7600 -93.0214 101° East 404 465 11,300 -1,920 Descending Memphis Center
04:32PM 34.7536 -92.9278 95° East 404 465 10,000 -1,500 Descending Memphis Center
04:32PM 34.7500 -92.8972 98° East 381 438 9,800 -900 Descending Memphis Center
04:33PM 34.7497 -92.8089 90° East 380 437 9,100 -1,140 Descending Memphis Center
04:33PM 34.7503 -92.7761 89° East 332 382 8,700 -1,020 Descending Memphis Center
04:34PM 34.7581 -92.7003 83° East 341 392 8,100 -900 Descending Memphis Center
04:34PM 34.7564 -92.6750 95° East 306 352 7,800 -900 Descending Memphis Center
04:35PM 34.7619 -92.5994 85° East 318 366 7,200 -900 Descending Memphis Center
04:35PM 34.7625 -92.5717 89° East 291 335 6,900 -840 Descending Memphis Center
04:36PM 34.7700 -92.5011 83° East 300 345 6,400 -900 Descending Memphis Center
04:36PM 34.7661 -92.4756 100° East 291 335 6,000 -1,200 Descending Memphis Center
04:37PM 34.7758 -92.4025 81° East 288 331 5,200 -1,380 Descending Memphis Center
04:37PM 34.7742 -92.3747 94° East 289 333 4,600 -1,620 Descending Memphis Center
04:38PM 34.7794 -92.3064 85° East 288 331 3,600 -1,500 Descending Memphis Center
04:38PM 34.7778 -92.2811 95° East 287 330 3,100 -600 Descending Memphis Center
04:39PM 34.7892 -92.2183 78° East 282 325 3,000 -240 Descending Memphis Center
04:39PM 34.7914 -92.1956 83° East 224 258 2,900 -720 Descending Memphis Center
04:40PM 34.8131 -92.1531 58° Northeast 228 262 2,300 -840 Descending Memphis Center
04:40PM 34.8006 -92.1400 139° Southeast 175 201 2,100 -900 Descending Memphis Center
04:41PM 34.7756 -92.1497 198° South 118 136 1,400 -1,020 Descending Memphis Center
04:41PM 34.7628 -92.1619 218° Southwest 133 153 1,100 -300 Descending Memphis Center
04:42PM 34.7567 -92.1544 135° Southeast 73 84 1,100 -720 Level Memphis Center
04:42PM 34.7372 -92.1969 241° Southwest 133 153 400 -1,860 Descending Memphis Center